Weather observations for the past three days for
Montauk, Montauk Airport
Metric (Imperial)
Date Time (edt) Wind (kph) Vis. (km) Weather Sky Cond. Temperature (ºC) Relative Humidity Wind Chill (°C) Heat Index (°C) Pressure Precipitation (cm)
Air Dwpt 6 hour altimeter (cm) sea level (mb) 1 hr 3 hr 6 hr
Max. Min.
05 16:54 S 24 G 54 0.00 NULL NULL 13.3 9.4 77% 75.79 1010.5
05 15:54 S 22 G 48 0.00 NULL NULL 13.9 9.4 74% 75.82 1010.9
05 14:54 S 20 G 54 0.00 NULL NULL 14.4 10 75% 75.87 1011.4
05 13:54 S 19 G 41 0.00 NULL NULL 14.4 10 14.4 12.8 75% 75.9 1011.9
05 12:54 S 17 G 41 0.00 NULL NULL 14.4 10 75% 75.92 1012.2
05 11:54 SW 17 G 35 0.00 NULL NULL 14.4 10 75% 75.97 1012.8
05 10:54 S 20 G 43 0.00 NULL NULL 13.9 10 78% 75.97 1012.9
05 09:54 SW 20 G 50 0.00 NULL NULL 13.3 10 81% 75.95 1012.5
05 08:54 S 15 0.00 NULL NULL 13.9 10 78% 75.97 1012.7
05 07:54 SW 15 G 33 0.00 NULL NULL 12.8 10 12.8 10.6 83% 75.95 1012.5
05 06:54 S 15 0.00 NULL NULL 11.1 9.4 89% 75.92 1012.2
05 05:54 SW 13 0.00 NULL NULL 10.6 8.9 89% 75.9 1011.7
05 04:54 S 13 0.00 NULL NULL 10.6 8.9 89% 75.87 1011.5
05 03:54 S 15 0.00 NULL NULL 11.1 8.9 86% 75.9 1011.8
05 02:54 SW 15 0.00 NULL NULL 11.1 8.9 86% 75.9 1011.8
05 01:54 SW 15 0.00 NULL NULL 11.1 8.9 11.1 10.6 86% 75.95 1012.4
05 00:54 SW 13 0.00 NULL NULL 10.6 8.9 89% 75.95 1012.5
04 23:54 S 13 0.00 NULL NULL 10.6 8.3 86% 75.97 1012.8
04 22:54 S 11 0.00 NULL NULL 10.6 8.3 86% 76 1013.0
04 21:54 S 15 G 33 0.00 NULL NULL 10.6 8.3 86% 75.97 1012.9
04 20:54 SW 15 G 35 0.00 NULL NULL 10.6 8.3 86% 75.95 1012.4
04 19:54 S 19 G 39 0.00 NULL NULL 11.1 7.8 16.1 11.1 80% 75.87 1011.5
04 18:54 S 17 G 44 0.00 NULL NULL 11.7 7.2 74% 75.87 1011.3
04 17:54 S 19 G 46 0.00 NULL NULL 12.8 7.2 69% 75.87 1011.4
04 16:54 SW 19 G 48 0.00 NULL NULL 13.9 6.7 62% 75.87 1011.5
04 15:54 SW 20 G 48 0.00 NULL NULL 15 6.1 56% 75.87 1011.6
04 14:54 SW 19 G 41 0.00 NULL NULL 15 6.7 58% 75.9 1011.9
04 13:54 SW 19 G 41 0.00 NULL NULL 15 6.7 16.1 12.2 58% 75.95 1012.3
04 12:54 SW 20 G 43 0.00 NULL NULL 15.6 6.1 53% 75.97 1012.8
04 11:54 SW 15 G 35 0.00 NULL NULL 15 6.1 56% 76 1013.1
04 10:54 SW 17 G 37 0.00 NULL NULL 15.6 5 50% 76.02 1013.4
04 09:54 SW 17 G 33 0.00 NULL NULL 13.9 6.1 60% 76.05 1013.6
04 08:54 SW 11 0.00 NULL NULL 13.9 4.4 53% 76.05 1013.7
04 07:54 SW 11 0.00 NULL NULL 12.2 4.4 12.2 10 59% 76.05 1013.9
04 06:54 SW 11 0.00 NULL NULL 10.6 4.4 66% 76.05 1013.9
04 05:54 SW 9 0.00 NULL NULL 10 2.2 59% 9 76.02 1013.5
04 04:54 SW 11 0.00 NULL NULL 10.6 2.8 59% 76 1013.2
04 03:54 SW 9 0.00 NULL NULL 10 3.9 66% 9 75.97 1012.9
04 02:54 SW 9 0.00 NULL NULL 10.6 1.1 52% 75.95 1012.5
04 01:54 SW 9 0.00 NULL NULL 10 0 10.6 6.7 50% 9 75.95 1012.3
04 00:54 Calm 0.00 NULL NULL 8.3 2.8 69% 75.95 1012.4
03 23:54 S 6 0.00 NULL NULL 9.4 5 74% 75.92 1012.3
03 22:54 SW 7 0.00 NULL NULL 8.9 3.9 71% 8 75.92 1012.1
03 21:54 Calm 0.00 NULL NULL 7.8 1.7 66% 75.92 1012.2
03 20:54 Calm 0.00 NULL NULL 7.8 0.6 61% 75.87 1011.4
03 19:54 W 7 0.00 NULL NULL 10 1.7 12.8 10 57% 9 75.82 1010.7
03 18:54 NW 17 0.00 NULL NULL 11.1 0.6 49% 75.79 1010.3
03 17:54 NW 15 G 31 0.00 NULL NULL 12.2 -0.6 42% 75.72 1009.6
03 16:54 W 17 G 35 0.00 NULL NULL 12.8 -0.6 40% 75.67 1008.8
03 15:54 W 19 G 35 0.00 NULL NULL 12.2 0 43% 75.64 1008.5
03 14:54 W 15 G 31 0.00 NULL NULL 11.7 0.6 47% 75.67 1008.6
03 13:54 NW 17 G 41 0.00 NULL NULL 11.1 0.6 12.2 7.8 49% 75.67 1008.6
03 12:54 NW 17 0.00 NULL NULL 11.1 0 47% 75.64 1008.3
03 11:54 NW 20 G 33 0.00 NULL NULL 11.1 1.1 50% 75.64 1008.3
03 10:54 NW 17 G 35 0.00 NULL NULL 11.1 1.1 50% 75.62 1008.2
03 09:54 W 15 G 31 0.00 NULL NULL 10 -0.6 48% 8 75.64 1008.2
03 08:54 W 15 G 39 0.00 NULL NULL 8.3 -0.6 54% 6 75.64 1008.4
03 07:54 NW 19 0.00 NULL NULL 7.8 -0.6 8.9 7.2 56% 5 75.64 1008.5
03 06:54 NW 20 G 31 0.00 NULL NULL 7.2 -1.1 56% 4 75.64 1008.4
03 05:54 NW 20 G 33 0.00 NULL NULL 7.2 -1.1 56% 4 75.62 1008.0
03 04:54 N 22 G 41 0.00 NULL NULL 8.3 -1.7 50% 5 75.62 1008.0
03 03:54 N 15 0.00 NULL NULL 8.9 -1.1 50% 7 75.62 1008.1
03 02:54 N 19 G 33 0.00 NULL NULL 8.9 -1.1 50% 6 75.67 1008.8
03 01:54 N 11 0.00 NULL NULL 8.9 2.2 10 8.3 63% 7 75.72 1009.4
03 00:54 N 9 0.00 NULL NULL 8.9 7.2 89% 8 75.77 1010.2
02 23:54 Calm 0.00 NULL NULL 8.9 7.8 93% 75.79 1010.6
02 22:54 Calm 0.00 NULL NULL 8.9 7.8 93% 75.82 1010.8
02 21:54 Calm 0.00 NULL NULL 8.9 7.8 93% 75.84 1011.0
02 20:54 Calm 0.00 NULL NULL 9.4 7.8 90% 75.84 1011.0
02 19:54 Calm 0.00 NULL NULL 10 8.3 10.6 10 89% 75.82 1010.7
02 18:54 Calm 0.00 NULL NULL 10 7.8 86% 75.79 1010.5
02 17:54 Calm 0.00 NULL NULL 10 8.3 89% 75.79 1010.5
Date Time (edt) Wind (kph) Vis. (km) Weather Sky Cond. Air Dwpt Max. Min. Relative Humidity Wind Chill (°C) Heat Index (°C) altimeter (cm) sea level (mb) 1 hr 3 hr 6 hr
6 hour
Temperature (ºC) Pressure Precipitation (cm)